sensor_id;sensor_type;location;lat;lon;timestamp;P1;durP1;ratioP1;P2;durP2;ratioP2
5349;SDS011;2697;42.144;24.794;2023-04-24T00:00:04;17.13;;;7.33;;
5349;SDS011;2697;42.144;24.794;2023-04-24T00:02:31;11.03;;;6.10;;
5349;SDS011;2697;42.144;24.794;2023-04-24T00:04:57;14.53;;;7.40;;
5349;SDS011;2697;42.144;24.794;2023-04-24T00:07:27;18.57;;;7.97;;
5349;SDS011;2697;42.144;24.794;2023-04-24T00:09:52;18.80;;;7.57;;
5349;SDS011;2697;42.144;24.794;2023-04-24T00:12:18;16.53;;;8.97;;
5349;SDS011;2697;42.144;24.794;2023-04-24T00:14:43;18.80;;;8.93;;
5349;SDS011;2697;42.144;24.794;2023-04-24T00:17:08;23.70;;;9.27;;
5349;SDS011;2697;42.144;24.794;2023-04-24T00:19:34;17.27;;;8.10;;
5349;SDS011;2697;42.144;24.794;2023-04-24T00:21:59;23.60;;;7.37;;
5349;SDS011;2697;42.144;24.794;2023-04-24T00:24:25;18.70;;;7.73;;
5349;SDS011;2697;42.144;24.794;2023-04-24T00:26:50;10.83;;;7.57;;
5349;SDS011;2697;42.144;24.794;2023-04-24T00:29:16;12.30;;;7.10;;
5349;SDS011;2697;42.144;24.794;2023-04-24T00:31:41;18.70;;;7.57;;
5349;SDS011;2697;42.144;24.794;2023-04-24T00:34:06;15.43;;;7.27;;
5349;SDS011;2697;42.144;24.794;2023-04-24T00:36:32;16.10;;;7.87;;
5349;SDS011;2697;42.144;24.794;2023-04-24T00:38:58;18.83;;;7.83;;
5349;SDS011;2697;42.144;24.794;2023-04-24T00:41:24;12.93;;;7.00;;
5349;SDS011;2697;42.144;24.794;2023-04-24T00:43:50;15.70;;;6.43;;
5349;SDS011;2697;42.144;24.794;2023-04-24T00:46:16;15.20;;;6.67;;
5349;SDS011;2697;42.144;24.794;2023-04-24T00:48:42;12.63;;;6.87;;
5349;SDS011;2697;42.144;24.794;2023-04-24T00:51:08;14.30;;;6.90;;
5349;SDS011;2697;42.144;24.794;2023-04-24T00:53:33;12.40;;;6.47;;
5349;SDS011;2697;42.144;24.794;2023-04-24T00:55:59;15.10;;;7.33;;
5349;SDS011;2697;42.144;24.794;2023-04-24T00:58:25;15.40;;;6.80;;
5349;SDS011;2697;42.144;24.794;2023-04-24T01:00:51;15.70;;;7.33;;
5349;SDS011;2697;42.144;24.794;2023-04-24T01:03:19;14.63;;;8.50;;
5349;SDS011;2697;42.144;24.794;2023-04-24T01:05:46;18.87;;;8.50;;
5349;SDS011;2697;42.144;24.794;2023-04-24T01:08:13;18.10;;;8.40;;
5349;SDS011;2697;42.144;24.794;2023-04-24T01:10:39;19.57;;;9.57;;
5349;SDS011;2697;42.144;24.794;2023-04-24T01:13:06;63.40;;;18.87;;
5349;SDS011;2697;42.144;24.794;2023-04-24T01:15:33;154.83;;;40.87;;
5349;SDS011;2697;42.144;24.794;2023-04-24T01:17:59;77.20;;;22.90;;
5349;SDS011;2697;42.144;24.794;2023-04-24T01:20:25;22.47;;;9.73;;
5349;SDS011;2697;42.144;24.794;2023-04-24T01:22:51;21.30;;;9.57;;
5349;SDS011;2697;42.144;24.794;2023-04-24T01:25:17;20.37;;;10.40;;
5349;SDS011;2697;42.144;24.794;2023-04-24T01:27:43;32.23;;;12.80;;
5349;SDS011;2697;42.144;24.794;2023-04-24T01:30:09;44.17;;;14.37;;
5349;SDS011;2697;42.144;24.794;2023-04-24T01:32:35;23.53;;;11.07;;
5349;SDS011;2697;42.144;24.794;2023-04-24T01:35:01;21.10;;;9.23;;
5349;SDS011;2697;42.144;24.794;2023-04-24T01:37:27;14.83;;;8.83;;
5349;SDS011;2697;42.144;24.794;2023-04-24T01:39:53;16.47;;;9.67;;
5349;SDS011;2697;42.144;24.794;2023-04-24T01:42:18;19.23;;;8.83;;
5349;SDS011;2697;42.144;24.794;2023-04-24T01:44:44;13.67;;;8.10;;
5349;SDS011;2697;42.144;24.794;2023-04-24T01:47:10;19.40;;;7.67;;
5349;SDS011;2697;42.144;24.794;2023-04-24T01:49:37;13.47;;;7.80;;
5349;SDS011;2697;42.144;24.794;2023-04-24T01:52:03;10.20;;;7.40;;
5349;SDS011;2697;42.144;24.794;2023-04-24T01:54:28;12.60;;;7.00;;
5349;SDS011;2697;42.144;24.794;2023-04-24T01:56:54;21.20;;;7.87;;
5349;SDS011;2697;42.144;24.794;2023-04-24T01:59:19;17.57;;;9.63;;
5349;SDS011;2697;42.144;24.794;2023-04-24T02:01:46;18.23;;;8.90;;
5349;SDS011;2697;42.144;24.794;2023-04-24T02:04:12;26.20;;;9.10;;
5349;SDS011;2697;42.144;24.794;2023-04-24T02:06:37;13.13;;;8.27;;
5349;SDS011;2697;42.144;24.794;2023-04-24T02:09:02;13.50;;;9.07;;
5349;SDS011;2697;42.144;24.794;2023-04-24T02:11:28;16.03;;;8.80;;
5349;SDS011;2697;42.144;24.794;2023-04-24T02:13:53;31.07;;;9.07;;
5349;SDS011;2697;42.144;24.794;2023-04-24T02:16:19;15.93;;;9.83;;
5349;SDS011;2697;42.144;24.794;2023-04-24T02:18:44;14.23;;;8.90;;
5349;SDS011;2697;42.144;24.794;2023-04-24T02:21:10;16.07;;;8.33;;
5349;SDS011;2697;42.144;24.794;2023-04-24T02:23:36;17.73;;;10.43;;
5349;SDS011;2697;42.144;24.794;2023-04-24T02:26:01;21.00;;;10.03;;
5349;SDS011;2697;42.144;24.794;2023-04-24T02:28:27;24.13;;;12.63;;
5349;SDS011;2697;42.144;24.794;2023-04-24T02:30:53;21.47;;;10.10;;
5349;SDS011;2697;42.144;24.794;2023-04-24T02:33:18;22.20;;;11.67;;
5349;SDS011;2697;42.144;24.794;2023-04-24T02:35:43;19.67;;;10.73;;
5349;SDS011;2697;42.144;24.794;2023-04-24T02:38:09;41.00;;;11.30;;
5349;SDS011;2697;42.144;24.794;2023-04-24T02:40:34;27.13;;;11.47;;
5349;SDS011;2697;42.144;24.794;2023-04-24T02:42:59;19.90;;;10.87;;
5349;SDS011;2697;42.144;24.794;2023-04-24T02:45:25;27.57;;;12.20;;
5349;SDS011;2697;42.144;24.794;2023-04-24T02:47:50;22.93;;;11.37;;
5349;SDS011;2697;42.144;24.794;2023-04-24T02:50:16;23.30;;;10.80;;
5349;SDS011;2697;42.144;24.794;2023-04-24T02:52:41;21.73;;;11.00;;
5349;SDS011;2697;42.144;24.794;2023-04-24T02:55:06;22.03;;;11.37;;
5349;SDS011;2697;42.144;24.794;2023-04-24T02:57:33;40.70;;;13.90;;
5349;SDS011;2697;42.144;24.794;2023-04-24T02:59:58;22.13;;;11.90;;
5349;SDS011;2697;42.144;24.794;2023-04-24T03:02:24;36.27;;;12.80;;
5349;SDS011;2697;42.144;24.794;2023-04-24T03:04:50;22.13;;;10.77;;
5349;SDS011;2697;42.144;24.794;2023-04-24T03:07:15;34.73;;;10.93;;
5349;SDS011;2697;42.144;24.794;2023-04-24T03:09:41;27.60;;;12.60;;
5349;SDS011;2697;42.144;24.794;2023-04-24T03:12:06;27.10;;;11.97;;
5349;SDS011;2697;42.144;24.794;2023-04-24T03:14:32;33.53;;;13.83;;
5349;SDS011;2697;42.144;24.794;2023-04-24T03:16:57;26.50;;;11.70;;
5349;SDS011;2697;42.144;24.794;2023-04-24T03:19:23;24.40;;;12.30;;
5349;SDS011;2697;42.144;24.794;2023-04-24T03:21:48;33.57;;;13.63;;
5349;SDS011;2697;42.144;24.794;2023-04-24T03:24:14;31.30;;;12.10;;
5349;SDS011;2697;42.144;24.794;2023-04-24T03:26:39;26.27;;;13.43;;
5349;SDS011;2697;42.144;24.794;2023-04-24T03:29:05;34.07;;;13.37;;
5349;SDS011;2697;42.144;24.794;2023-04-24T03:31:30;35.60;;;12.47;;
5349;SDS011;2697;42.144;24.794;2023-04-24T03:33:56;21.33;;;13.70;;
5349;SDS011;2697;42.144;24.794;2023-04-24T03:36:21;23.50;;;12.00;;
5349;SDS011;2697;42.144;24.794;2023-04-24T03:38:46;38.47;;;15.00;;
5349;SDS011;2697;42.144;24.794;2023-04-24T03:41:12;39.90;;;14.30;;
5349;SDS011;2697;42.144;24.794;2023-04-24T03:43:37;29.80;;;13.10;;
5349;SDS011;2697;42.144;24.794;2023-04-24T03:46:03;27.30;;;15.00;;
5349;SDS011;2697;42.144;24.794;2023-04-24T03:48:28;23.90;;;14.10;;
5349;SDS011;2697;42.144;24.794;2023-04-24T03:50:54;24.80;;;12.03;;
5349;SDS011;2697;42.144;24.794;2023-04-24T03:53:20;32.90;;;12.47;;
5349;SDS011;2697;42.144;24.794;2023-04-24T03:55:45;20.77;;;10.37;;
5349;SDS011;2697;42.144;24.794;2023-04-24T03:58:11;19.30;;;11.30;;
5349;SDS011;2697;42.144;24.794;2023-04-24T04:00:36;16.63;;;10.83;;
5349;SDS011;2697;42.144;24.794;2023-04-24T04:03:02;22.90;;;10.07;;
5349;SDS011;2697;42.144;24.794;2023-04-24T04:05:28;23.97;;;10.40;;
5349;SDS011;2697;42.144;24.794;2023-04-24T04:07:54;15.73;;;9.00;;
5349;SDS011;2697;42.144;24.794;2023-04-24T04:10:20;29.33;;;9.80;;
5349;SDS011;2697;42.144;24.794;2023-04-24T04:12:46;22.67;;;9.83;;
5349;SDS011;2697;42.144;24.794;2023-04-24T04:15:11;32.83;;;12.20;;
5349;SDS011;2697;42.144;24.794;2023-04-24T04:17:37;29.67;;;11.93;;
5349;SDS011;2697;42.144;24.794;2023-04-24T04:20:03;21.27;;;8.77;;
5349;SDS011;2697;42.144;24.794;2023-04-24T04:22:33;21.00;;;9.37;;
5349;SDS011;2697;42.144;24.794;2023-04-24T04:24:59;25.93;;;9.07;;
5349;SDS011;2697;42.144;24.794;2023-04-24T04:27:24;34.33;;;8.90;;
5349;SDS011;2697;42.144;24.794;2023-04-24T04:29:50;27.43;;;9.53;;
5349;SDS011;2697;42.144;24.794;2023-04-24T04:32:15;34.37;;;8.90;;
5349;SDS011;2697;42.144;24.794;2023-04-24T04:34:41;25.63;;;8.10;;
5349;SDS011;2697;42.144;24.794;2023-04-24T04:37:06;17.40;;;8.50;;
5349;SDS011;2697;42.144;24.794;2023-04-24T04:39:32;20.50;;;10.07;;
5349;SDS011;2697;42.144;24.794;2023-04-24T04:41:57;23.73;;;8.50;;
5349;SDS011;2697;42.144;24.794;2023-04-24T04:44:23;18.73;;;7.20;;
5349;SDS011;2697;42.144;24.794;2023-04-24T04:46:49;28.43;;;8.73;;
5349;SDS011;2697;42.144;24.794;2023-04-24T04:49:15;21.70;;;6.83;;
5349;SDS011;2697;42.144;24.794;2023-04-24T04:51:41;24.73;;;7.10;;
5349;SDS011;2697;42.144;24.794;2023-04-24T04:54:07;10.73;;;6.50;;
5349;SDS011;2697;42.144;24.794;2023-04-24T04:56:32;26.43;;;8.70;;
5349;SDS011;2697;42.144;24.794;2023-04-24T04:58:58;21.97;;;7.40;;
5349;SDS011;2697;42.144;24.794;2023-04-24T05:01:24;28.23;;;8.47;;
5349;SDS011;2697;42.144;24.794;2023-04-24T05:03:50;14.90;;;8.20;;
5349;SDS011;2697;42.144;24.794;2023-04-24T05:06:15;25.93;;;8.30;;
5349;SDS011;2697;42.144;24.794;2023-04-24T05:08:41;23.43;;;8.10;;
5349;SDS011;2697;42.144;24.794;2023-04-24T05:11:06;26.40;;;9.20;;
5349;SDS011;2697;42.144;24.794;2023-04-24T05:13:32;19.93;;;9.63;;
5349;SDS011;2697;42.144;24.794;2023-04-24T05:15:57;21.20;;;8.87;;
5349;SDS011;2697;42.144;24.794;2023-04-24T05:18:23;23.27;;;6.90;;
5349;SDS011;2697;42.144;24.794;2023-04-24T05:20:48;12.53;;;7.07;;
5349;SDS011;2697;42.144;24.794;2023-04-24T05:23:13;10.13;;;7.00;;
5349;SDS011;2697;42.144;24.794;2023-04-24T05:25:39;11.53;;;6.73;;
5349;SDS011;2697;42.144;24.794;2023-04-24T05:28:05;17.80;;;7.53;;
5349;SDS011;2697;42.144;24.794;2023-04-24T05:30:30;13.67;;;7.07;;
5349;SDS011;2697;42.144;24.794;2023-04-24T05:32:56;10.60;;;6.50;;
5349;SDS011;2697;42.144;24.794;2023-04-24T05:35:21;22.87;;;7.00;;
5349;SDS011;2697;42.144;24.794;2023-04-24T05:37:47;11.23;;;6.80;;
5349;SDS011;2697;42.144;24.794;2023-04-24T05:40:12;19.80;;;7.00;;
5349;SDS011;2697;42.144;24.794;2023-04-24T05:42:38;20.70;;;6.87;;
5349;SDS011;2697;42.144;24.794;2023-04-24T05:45:03;19.77;;;6.50;;
5349;SDS011;2697;42.144;24.794;2023-04-24T05:47:29;13.40;;;5.73;;
5349;SDS011;2697;42.144;24.794;2023-04-24T05:49:55;11.70;;;6.57;;
5349;SDS011;2697;42.144;24.794;2023-04-24T05:52:20;19.43;;;8.17;;
5349;SDS011;2697;42.144;24.794;2023-04-24T05:54:45;15.60;;;6.40;;
5349;SDS011;2697;42.144;24.794;2023-04-24T05:57:11;14.07;;;6.87;;
5349;SDS011;2697;42.144;24.794;2023-04-24T05:59:37;19.70;;;6.90;;
5349;SDS011;2697;42.144;24.794;2023-04-24T06:02:05;12.27;;;6.10;;
5349;SDS011;2697;42.144;24.794;2023-04-24T06:04:31;10.87;;;5.70;;
5349;SDS011;2697;42.144;24.794;2023-04-24T06:06:57;8.53;;;6.50;;
5349;SDS011;2697;42.144;24.794;2023-04-24T06:09:23;13.20;;;6.40;;
5349;SDS011;2697;42.144;24.794;2023-04-24T06:11:49;21.63;;;7.10;;
5349;SDS011;2697;42.144;24.794;2023-04-24T06:14:17;13.03;;;6.80;;
5349;SDS011;2697;42.144;24.794;2023-04-24T06:16:43;18.23;;;6.47;;
5349;SDS011;2697;42.144;24.794;2023-04-24T06:19:08;19.67;;;6.30;;
5349;SDS011;2697;42.144;24.794;2023-04-24T06:21:34;11.00;;;5.90;;
5349;SDS011;2697;42.144;24.794;2023-04-24T06:23:59;13.57;;;5.60;;
5349;SDS011;2697;42.144;24.794;2023-04-24T06:26:25;13.40;;;6.47;;
5349;SDS011;2697;42.144;24.794;2023-04-24T06:28:51;19.13;;;4.93;;
5349;SDS011;2697;42.144;24.794;2023-04-24T06:31:18;12.20;;;5.53;;
5349;SDS011;2697;42.144;24.794;2023-04-24T06:33:44;7.80;;;5.33;;
5349;SDS011;2697;42.144;24.794;2023-04-24T06:36:10;15.07;;;5.90;;
5349;SDS011;2697;42.144;24.794;2023-04-24T06:38:35;12.30;;;6.50;;
5349;SDS011;2697;42.144;24.794;2023-04-24T06:41:01;15.97;;;6.97;;
5349;SDS011;2697;42.144;24.794;2023-04-24T06:43:26;14.53;;;6.37;;
5349;SDS011;2697;42.144;24.794;2023-04-24T06:45:51;11.23;;;5.70;;
5349;SDS011;2697;42.144;24.794;2023-04-24T06:48:17;16.70;;;5.87;;
5349;SDS011;2697;42.144;24.794;2023-04-24T06:50:42;16.20;;;8.50;;
5349;SDS011;2697;42.144;24.794;2023-04-24T06:53:08;14.23;;;6.80;;
5349;SDS011;2697;42.144;24.794;2023-04-24T06:55:36;9.97;;;5.90;;
5349;SDS011;2697;42.144;24.794;2023-04-24T06:58:01;25.00;;;7.20;;
5349;SDS011;2697;42.144;24.794;2023-04-24T07:00:26;15.93;;;6.43;;
5349;SDS011;2697;42.144;24.794;2023-04-24T07:02:52;14.73;;;6.83;;
5349;SDS011;2697;42.144;24.794;2023-04-24T07:05:17;16.07;;;6.53;;
5349;SDS011;2697;42.144;24.794;2023-04-24T07:07:45;34.07;;;7.20;;
5349;SDS011;2697;42.144;24.794;2023-04-24T07:10:12;27.53;;;7.00;;
5349;SDS011;2697;42.144;24.794;2023-04-24T07:12:38;15.43;;;6.37;;
5349;SDS011;2697;42.144;24.794;2023-04-24T07:15:04;16.77;;;6.40;;
5349;SDS011;2697;42.144;24.794;2023-04-24T07:17:30;13.30;;;5.87;;
5349;SDS011;2697;42.144;24.794;2023-04-24T07:19:56;15.00;;;5.80;;
5349;SDS011;2697;42.144;24.794;2023-04-24T07:22:21;15.80;;;6.30;;
5349;SDS011;2697;42.144;24.794;2023-04-24T07:24:46;21.97;;;7.50;;
5349;SDS011;2697;42.144;24.794;2023-04-24T07:27:12;16.83;;;6.53;;
5349;SDS011;2697;42.144;24.794;2023-04-24T07:29:39;31.07;;;7.50;;
5349;SDS011;2697;42.144;24.794;2023-04-24T07:32:05;12.80;;;6.83;;
5349;SDS011;2697;42.144;24.794;2023-04-24T07:34:31;21.40;;;7.30;;
5349;SDS011;2697;42.144;24.794;2023-04-24T07:36:56;10.30;;;6.13;;
5349;SDS011;2697;42.144;24.794;2023-04-24T07:39:22;7.00;;;5.20;;
5349;SDS011;2697;42.144;24.794;2023-04-24T07:41:49;23.23;;;5.73;;
5349;SDS011;2697;42.144;24.794;2023-04-24T07:44:14;24.93;;;6.87;;
5349;SDS011;2697;42.144;24.794;2023-04-24T07:46:40;13.43;;;6.70;;
5349;SDS011;2697;42.144;24.794;2023-04-24T07:49:05;16.40;;;7.80;;
5349;SDS011;2697;42.144;24.794;2023-04-24T07:51:31;15.63;;;6.00;;
5349;SDS011;2697;42.144;24.794;2023-04-24T07:53:58;25.10;;;5.87;;
5349;SDS011;2697;42.144;24.794;2023-04-24T07:56:23;13.30;;;6.80;;
5349;SDS011;2697;42.144;24.794;2023-04-24T07:58:50;7.17;;;5.43;;
5349;SDS011;2697;42.144;24.794;2023-04-24T08:01:15;13.83;;;6.73;;
5349;SDS011;2697;42.144;24.794;2023-04-24T08:03:43;10.03;;;6.20;;
5349;SDS011;2697;42.144;24.794;2023-04-24T08:06:09;11.40;;;6.37;;
5349;SDS011;2697;42.144;24.794;2023-04-24T08:08:35;13.20;;;5.87;;
5349;SDS011;2697;42.144;24.794;2023-04-24T08:11:00;15.27;;;6.50;;
5349;SDS011;2697;42.144;24.794;2023-04-24T08:13:26;17.13;;;6.40;;
5349;SDS011;2697;42.144;24.794;2023-04-24T08:15:51;25.50;;;7.10;;
5349;SDS011;2697;42.144;24.794;2023-04-24T08:18:17;13.83;;;6.87;;
5349;SDS011;2697;42.144;24.794;2023-04-24T08:20:42;12.33;;;6.63;;
5349;SDS011;2697;42.144;24.794;2023-04-24T08:23:08;17.70;;;6.40;;
5349;SDS011;2697;42.144;24.794;2023-04-24T08:25:33;15.57;;;7.93;;
5349;SDS011;2697;42.144;24.794;2023-04-24T08:28:00;11.10;;;6.80;;
5349;SDS011;2697;42.144;24.794;2023-04-24T08:30:27;13.93;;;6.37;;
5349;SDS011;2697;42.144;24.794;2023-04-24T08:32:53;19.10;;;6.53;;
5349;SDS011;2697;42.144;24.794;2023-04-24T08:35:19;16.63;;;6.03;;
5349;SDS011;2697;42.144;24.794;2023-04-24T08:37:44;12.30;;;6.77;;
5349;SDS011;2697;42.144;24.794;2023-04-24T08:40:13;19.60;;;9.40;;
5349;SDS011;2697;42.144;24.794;2023-04-24T08:42:42;16.00;;;6.37;;
5349;SDS011;2697;42.144;24.794;2023-04-24T08:45:09;15.80;;;7.20;;
5349;SDS011;2697;42.144;24.794;2023-04-24T08:47:37;16.07;;;7.43;;
5349;SDS011;2697;42.144;24.794;2023-04-24T08:50:07;9.47;;;6.30;;
5349;SDS011;2697;42.144;24.794;2023-04-24T08:52:34;13.80;;;6.17;;
5349;SDS011;2697;42.144;24.794;2023-04-24T08:55:00;26.17;;;7.40;;
5349;SDS011;2697;42.144;24.794;2023-04-24T08:57:26;15.17;;;6.33;;
5349;SDS011;2697;42.144;24.794;2023-04-24T08:59:53;8.57;;;5.73;;
5349;SDS011;2697;42.144;24.794;2023-04-24T09:02:19;14.33;;;7.53;;
5349;SDS011;2697;42.144;24.794;2023-04-24T09:04:46;14.70;;;7.53;;
5349;SDS011;2697;42.144;24.794;2023-04-24T09:07:12;10.83;;;6.70;;
5349;SDS011;2697;42.144;24.794;2023-04-24T09:09:41;15.80;;;5.43;;
5349;SDS011;2697;42.144;24.794;2023-04-24T09:12:07;16.67;;;5.73;;
5349;SDS011;2697;42.144;24.794;2023-04-24T09:14:34;11.30;;;7.33;;
5349;SDS011;2697;42.144;24.794;2023-04-24T09:17:03;10.77;;;7.87;;
5349;SDS011;2697;42.144;24.794;2023-04-24T09:19:28;18.97;;;7.97;;
5349;SDS011;2697;42.144;24.794;2023-04-24T09:21:54;14.30;;;5.20;;
5349;SDS011;2697;42.144;24.794;2023-04-24T09:24:20;14.73;;;6.83;;
5349;SDS011;2697;42.144;24.794;2023-04-24T09:26:55;15.43;;;7.23;;
5349;SDS011;2697;42.144;24.794;2023-04-24T09:29:26;21.90;;;10.40;;
5349;SDS011;2697;42.144;24.794;2023-04-24T09:31:57;27.57;;;11.50;;
5349;SDS011;2697;42.144;24.794;2023-04-24T09:34:24;12.40;;;7.70;;
5349;SDS011;2697;42.144;24.794;2023-04-24T09:36:51;44.47;;;8.83;;
5349;SDS011;2697;42.144;24.794;2023-04-24T09:39:16;24.43;;;8.00;;
5349;SDS011;2697;42.144;24.794;2023-04-24T09:41:51;10.33;;;6.47;;
5349;SDS011;2697;42.144;24.794;2023-04-24T09:44:18;14.90;;;9.60;;
5349;SDS011;2697;42.144;24.794;2023-04-24T09:46:51;16.40;;;9.93;;
5349;SDS011;2697;42.144;24.794;2023-04-24T09:49:23;15.80;;;10.70;;
5349;SDS011;2697;42.144;24.794;2023-04-24T09:52:02;19.17;;;10.90;;
5349;SDS011;2697;42.144;24.794;2023-04-24T09:54:28;11.63;;;6.37;;
5349;SDS011;2697;42.144;24.794;2023-04-24T09:56:54;30.10;;;9.23;;
5349;SDS011;2697;42.144;24.794;2023-04-24T09:59:21;16.50;;;8.83;;
5349;SDS011;2697;42.144;24.794;2023-04-24T10:01:47;18.10;;;8.90;;
5349;SDS011;2697;42.144;24.794;2023-04-24T10:04:23;22.97;;;10.33;;
5349;SDS011;2697;42.144;24.794;2023-04-24T10:06:51;21.90;;;9.63;;
5349;SDS011;2697;42.144;24.794;2023-04-24T10:09:18;14.63;;;5.63;;
5349;SDS011;2697;42.144;24.794;2023-04-24T10:11:45;32.90;;;6.47;;
5349;SDS011;2697;42.144;24.794;2023-04-24T10:14:16;15.30;;;7.20;;
5349;SDS011;2697;42.144;24.794;2023-04-24T10:16:43;8.20;;;5.90;;
5349;SDS011;2697;42.144;24.794;2023-04-24T10:19:12;17.80;;;7.00;;
5349;SDS011;2697;42.144;24.794;2023-04-24T10:21:38;11.37;;;7.40;;
5349;SDS011;2697;42.144;24.794;2023-04-24T10:24:08;27.63;;;8.07;;
5349;SDS011;2697;42.144;24.794;2023-04-24T10:26:34;14.97;;;7.63;;
5349;SDS011;2697;42.144;24.794;2023-04-24T10:29:00;19.60;;;8.50;;
5349;SDS011;2697;42.144;24.794;2023-04-24T10:31:28;15.60;;;6.07;;
5349;SDS011;2697;42.144;24.794;2023-04-24T10:33:56;11.27;;;5.20;;
5349;SDS011;2697;42.144;24.794;2023-04-24T10:36:25;9.97;;;5.33;;
5349;SDS011;2697;42.144;24.794;2023-04-24T10:38:52;8.60;;;5.40;;
5349;SDS011;2697;42.144;24.794;2023-04-24T10:41:20;14.00;;;5.03;;
5349;SDS011;2697;42.144;24.794;2023-04-24T10:43:48;9.33;;;4.90;;
5349;SDS011;2697;42.144;24.794;2023-04-24T10:46:34;14.03;;;6.27;;
5349;SDS011;2697;42.144;24.794;2023-04-24T10:49:03;11.03;;;5.03;;
5349;SDS011;2697;42.144;24.794;2023-04-24T10:51:53;6.90;;;4.83;;
5349;SDS011;2697;42.144;24.794;2023-04-24T10:54:22;17.67;;;8.20;;
5349;SDS011;2697;42.144;24.794;2023-04-24T10:56:52;7.13;;;4.40;;
5349;SDS011;2697;42.144;24.794;2023-04-24T10:59:25;9.90;;;5.13;;
5349;SDS011;2697;42.144;24.794;2023-04-24T11:01:52;8.30;;;5.80;;
5349;SDS011;2697;42.144;24.794;2023-04-24T11:04:28;7.60;;;4.50;;
5349;SDS011;2697;42.144;24.794;2023-04-24T11:06:55;10.43;;;6.40;;
5349;SDS011;2697;42.144;24.794;2023-04-24T11:09:21;6.90;;;3.90;;
5349;SDS011;2697;42.144;24.794;2023-04-24T11:11:47;8.60;;;4.40;;
5349;SDS011;2697;42.144;24.794;2023-04-24T11:14:15;8.47;;;4.27;;
5349;SDS011;2697;42.144;24.794;2023-04-24T11:19:07;11.23;;;5.10;;
5349;SDS011;2697;42.144;24.794;2023-04-24T11:21:46;8.13;;;4.50;;
5349;SDS011;2697;42.144;24.794;2023-04-24T11:29:38;10.30;;;4.40;;
5349;SDS011;2697;42.144;24.794;2023-04-24T11:32:18;8.40;;;4.83;;
5349;SDS011;2697;42.144;24.794;2023-04-24T11:34:47;4.67;;;4.17;;
5349;SDS011;2697;42.144;24.794;2023-04-24T11:37:15;11.37;;;4.40;;
5349;SDS011;2697;42.144;24.794;2023-04-24T11:39:41;9.20;;;4.70;;
5349;SDS011;2697;42.144;24.794;2023-04-24T11:42:07;5.23;;;4.00;;
5349;SDS011;2697;42.144;24.794;2023-04-24T11:44:34;15.27;;;4.60;;
5349;SDS011;2697;42.144;24.794;2023-04-24T11:47:02;8.83;;;4.50;;
5349;SDS011;2697;42.144;24.794;2023-04-24T11:49:30;11.37;;;5.03;;
5349;SDS011;2697;42.144;24.794;2023-04-24T11:51:56;7.73;;;3.83;;
5349;SDS011;2697;42.144;24.794;2023-04-24T11:54:21;13.73;;;4.63;;
5349;SDS011;2697;42.144;24.794;2023-04-24T11:56:47;17.83;;;4.63;;
5349;SDS011;2697;42.144;24.794;2023-04-24T11:59:14;7.40;;;4.20;;
5349;SDS011;2697;42.144;24.794;2023-04-24T12:01:43;15.93;;;4.70;;
5349;SDS011;2697;42.144;24.794;2023-04-24T12:04:12;12.77;;;4.20;;
5349;SDS011;2697;42.144;24.794;2023-04-24T12:06:38;6.67;;;4.77;;
5349;SDS011;2697;42.144;24.794;2023-04-24T12:09:03;13.20;;;4.40;;
5349;SDS011;2697;42.144;24.794;2023-04-24T12:11:29;8.70;;;4.00;;
5349;SDS011;2697;42.144;24.794;2023-04-24T12:13:55;21.73;;;4.50;;
5349;SDS011;2697;42.144;24.794;2023-04-24T12:16:20;10.30;;;4.23;;
5349;SDS011;2697;42.144;24.794;2023-04-24T12:18:46;8.00;;;4.57;;
5349;SDS011;2697;42.144;24.794;2023-04-24T12:21:18;6.60;;;4.43;;
5349;SDS011;2697;42.144;24.794;2023-04-24T12:23:47;8.70;;;4.57;;
5349;SDS011;2697;42.144;24.794;2023-04-24T12:26:17;9.93;;;4.77;;
5349;SDS011;2697;42.144;24.794;2023-04-24T12:28:45;5.23;;;4.73;;
5349;SDS011;2697;42.144;24.794;2023-04-24T12:31:13;12.27;;;3.80;;
5349;SDS011;2697;42.144;24.794;2023-04-24T12:33:38;8.73;;;4.23;;
5349;SDS011;2697;42.144;24.794;2023-04-24T12:36:04;5.83;;;3.93;;
5349;SDS011;2697;42.144;24.794;2023-04-24T12:38:31;12.00;;;4.20;;
5349;SDS011;2697;42.144;24.794;2023-04-24T12:41:07;6.30;;;3.80;;
5349;SDS011;2697;42.144;24.794;2023-04-24T12:43:35;6.60;;;4.17;;
5349;SDS011;2697;42.144;24.794;2023-04-24T12:46:00;9.27;;;4.23;;
5349;SDS011;2697;42.144;24.794;2023-04-24T12:48:27;4.83;;;4.30;;
5349;SDS011;2697;42.144;24.794;2023-04-24T12:50:52;9.80;;;4.03;;
5349;SDS011;2697;42.144;24.794;2023-04-24T12:53:18;13.90;;;4.00;;
5349;SDS011;2697;42.144;24.794;2023-04-24T12:55:44;11.40;;;5.10;;
5349;SDS011;2697;42.144;24.794;2023-04-24T12:58:10;4.87;;;3.57;;
5349;SDS011;2697;42.144;24.794;2023-04-24T13:00:35;10.80;;;3.63;;
5349;SDS011;2697;42.144;24.794;2023-04-24T13:03:01;14.73;;;4.13;;
5349;SDS011;2697;42.144;24.794;2023-04-24T13:05:27;7.77;;;4.10;;
5349;SDS011;2697;42.144;24.794;2023-04-24T13:07:53;7.13;;;3.80;;
5349;SDS011;2697;42.144;24.794;2023-04-24T13:10:18;27.93;;;4.70;;
5349;SDS011;2697;42.144;24.794;2023-04-24T13:12:44;11.37;;;3.63;;
5349;SDS011;2697;42.144;24.794;2023-04-24T13:15:11;7.37;;;4.00;;
5349;SDS011;2697;42.144;24.794;2023-04-24T13:17:36;6.57;;;3.80;;
5349;SDS011;2697;42.144;24.794;2023-04-24T13:20:02;10.77;;;5.10;;
5349;SDS011;2697;42.144;24.794;2023-04-24T13:22:28;4.60;;;3.60;;
5349;SDS011;2697;42.144;24.794;2023-04-24T13:24:53;5.70;;;3.77;;
5349;SDS011;2697;42.144;24.794;2023-04-24T13:27:19;3.47;;;3.17;;
5349;SDS011;2697;42.144;24.794;2023-04-24T13:29:45;6.73;;;3.53;;
5349;SDS011;2697;42.144;24.794;2023-04-24T13:32:10;12.30;;;4.10;;
5349;SDS011;2697;42.144;24.794;2023-04-24T13:34:36;5.83;;;4.00;;
5349;SDS011;2697;42.144;24.794;2023-04-24T13:37:01;9.53;;;5.27;;
5349;SDS011;2697;42.144;24.794;2023-04-24T13:39:28;7.77;;;3.77;;
5349;SDS011;2697;42.144;24.794;2023-04-24T13:41:54;12.30;;;3.57;;
5349;SDS011;2697;42.144;24.794;2023-04-24T13:44:20;6.37;;;3.97;;
5349;SDS011;2697;42.144;24.794;2023-04-24T13:46:48;8.03;;;3.73;;
5349;SDS011;2697;42.144;24.794;2023-04-24T13:49:15;7.50;;;3.90;;
5349;SDS011;2697;42.144;24.794;2023-04-24T13:51:41;4.27;;;3.67;;
5349;SDS011;2697;42.144;24.794;2023-04-24T13:54:07;6.83;;;3.90;;
5349;SDS011;2697;42.144;24.794;2023-04-24T13:56:32;12.57;;;5.80;;
5349;SDS011;2697;42.144;24.794;2023-04-24T13:58:58;3.77;;;3.37;;
5349;SDS011;2697;42.144;24.794;2023-04-24T14:01:23;4.70;;;4.10;;
5349;SDS011;2697;42.144;24.794;2023-04-24T14:03:52;4.83;;;3.20;;
5349;SDS011;2697;42.144;24.794;2023-04-24T14:06:19;8.57;;;3.70;;
5349;SDS011;2697;42.144;24.794;2023-04-24T14:08:45;4.73;;;4.07;;
5349;SDS011;2697;42.144;24.794;2023-04-24T14:11:10;7.70;;;3.97;;
5349;SDS011;2697;42.144;24.794;2023-04-24T14:13:36;12.10;;;3.30;;
5349;SDS011;2697;42.144;24.794;2023-04-24T14:16:05;5.00;;;3.53;;
5349;SDS011;2697;42.144;24.794;2023-04-24T14:18:31;4.83;;;3.43;;
5349;SDS011;2697;42.144;24.794;2023-04-24T14:20:56;12.67;;;3.73;;
5349;SDS011;2697;42.144;24.794;2023-04-24T14:23:22;7.00;;;3.40;;
5349;SDS011;2697;42.144;24.794;2023-04-24T14:25:47;7.50;;;4.30;;
5349;SDS011;2697;42.144;24.794;2023-04-24T14:28:16;6.33;;;3.93;;
5349;SDS011;2697;42.144;24.794;2023-04-24T14:30:42;6.37;;;3.47;;
5349;SDS011;2697;42.144;24.794;2023-04-24T14:33:07;4.03;;;3.20;;
5349;SDS011;2697;42.144;24.794;2023-04-24T14:35:33;8.63;;;3.90;;
5349;SDS011;2697;42.144;24.794;2023-04-24T14:38:00;6.23;;;3.20;;
5349;SDS011;2697;42.144;24.794;2023-04-24T14:40:25;5.97;;;3.27;;
5349;SDS011;2697;42.144;24.794;2023-04-24T14:42:51;7.93;;;3.50;;
5349;SDS011;2697;42.144;24.794;2023-04-24T14:45:16;7.83;;;3.20;;
5349;SDS011;2697;42.144;24.794;2023-04-24T14:47:42;12.53;;;3.30;;
5349;SDS011;2697;42.144;24.794;2023-04-24T14:50:07;12.50;;;3.20;;